LMML/MLA METAR and TAF weather

Enter ICAO airport designator
Station Type Date Time Source
LMML METAR 2021/01/17 19:45 UTC NOAA

LMML 171945Z 28021G32KT 240V300 9999 FEW016 SCT028 13/10 Q1016 TEMPO 8000 SHRA


Station Type Date Time Source
LMML Decoded METAR 2021/01/17 19:45 UTC NOAA

Luqa, Malta (LMML) 35-51N 014-29E 91M
Jan 17, 2021 - 02:45 PM EST / 2021.01.17 1945 UTC
Wind: from the W (280 degrees) at 24 MPH (21 KT) gusting to 37 MPH (32 KT) (direction variable):0
Visibility: greater than 7 mile(s):0
Sky conditions: partly cloudy
Temperature: 55 F (13 C)
Dew Point: 50 F (10 C)
Relative Humidity: 81%
Pressure (altimeter): 30.00 in. Hg (1016 hPa)
ob: LMML 171945Z 28021G32KT 240V300 9999 FEW016 SCT028 13/10 Q1016 TEMPO 8000 SHRA
cycle: 20

Station Type Date Time Source
LMML TAF 2021/01/17 18:46 UTC NOAA

TAF LMML 171700Z 1718/1818 28018G28KT 9999 FEW020 SCT045
TEMPO 1718/1806 6000 SHRA SCT005 BKN015
BECMG 1718/1721 27028G45KT
BECMG 1806/1809 32018G28KT
BECMG 1811/1814 34013KT

Example: see airport list